sensor_id;sensor_type;location;lat;lon;timestamp;temperature;humidity
32217;DHT22;67098;51.140;4.088;2023-06-14T00:01:46;23.70;59.90
32217;DHT22;67098;51.140;4.088;2023-06-14T00:04:13;23.70;60.00
32217;DHT22;67098;51.140;4.088;2023-06-14T00:06:39;23.60;59.90
32217;DHT22;67098;51.140;4.088;2023-06-14T00:09:05;23.70;59.70
32217;DHT22;67098;51.140;4.088;2023-06-14T00:11:34;23.60;60.00
32217;DHT22;67098;51.140;4.088;2023-06-14T00:13:59;23.60;60.10
32217;DHT22;67098;51.140;4.088;2023-06-14T00:16:25;23.60;60.00
32217;DHT22;67098;51.140;4.088;2023-06-14T00:18:51;23.50;60.10
32217;DHT22;67098;51.140;4.088;2023-06-14T00:21:17;23.50;60.20
32217;DHT22;67098;51.140;4.088;2023-06-14T00:23:43;23.40;60.60
32217;DHT22;67098;51.140;4.088;2023-06-14T00:26:09;23.40;60.80
32217;DHT22;67098;51.140;4.088;2023-06-14T00:28:35;23.40;60.70
32217;DHT22;67098;51.140;4.088;2023-06-14T00:31:00;23.30;60.70
32217;DHT22;67098;51.140;4.088;2023-06-14T00:33:26;23.30;60.90
32217;DHT22;67098;51.140;4.088;2023-06-14T00:35:52;23.30;60.90
32217;DHT22;67098;51.140;4.088;2023-06-14T00:38:20;23.30;60.70
32217;DHT22;67098;51.140;4.088;2023-06-14T00:40:46;23.30;60.70
32217;DHT22;67098;51.140;4.088;2023-06-14T00:43:12;23.30;60.60
32217;DHT22;67098;51.140;4.088;2023-06-14T00:45:38;23.20;60.80
32217;DHT22;67098;51.140;4.088;2023-06-14T00:48:05;23.20;61.00
32217;DHT22;67098;51.140;4.088;2023-06-14T00:50:32;23.20;60.90
32217;DHT22;67098;51.140;4.088;2023-06-14T00:53:00;23.10;60.80
32217;DHT22;67098;51.140;4.088;2023-06-14T00:55:27;23.10;60.80
32217;DHT22;67098;51.140;4.088;2023-06-14T00:57:54;23.10;60.80
32217;DHT22;67098;51.140;4.088;2023-06-14T01:00:20;23.10;60.70
32217;DHT22;67098;51.140;4.088;2023-06-14T01:02:46;23.10;60.80
32217;DHT22;67098;51.140;4.088;2023-06-14T01:05:12;23.00;60.60
32217;DHT22;67098;51.140;4.088;2023-06-14T01:08:14;23.00;60.80
32217;DHT22;67098;51.140;4.088;2023-06-14T01:10:47;22.90;60.50
32217;DHT22;67098;51.140;4.088;2023-06-14T01:13:35;22.80;60.60
32217;DHT22;67098;51.140;4.088;2023-06-14T01:16:02;22.70;60.10
32217;DHT22;67098;51.140;4.088;2023-06-14T01:18:29;22.60;60.10
32217;DHT22;67098;51.140;4.088;2023-06-14T01:20:55;22.60;60.30
32217;DHT22;67098;51.140;4.088;2023-06-14T01:23:22;22.60;59.90
32217;DHT22;67098;51.140;4.088;2023-06-14T01:25:49;22.60;59.50
32217;DHT22;67098;51.140;4.088;2023-06-14T01:28:19;22.50;59.20
32217;DHT22;67098;51.140;4.088;2023-06-14T01:30:49;22.50;59.30
32217;DHT22;67098;51.140;4.088;2023-06-14T01:33:26;22.50;59.30
32217;DHT22;67098;51.140;4.088;2023-06-14T01:35:53;22.40;58.80
32217;DHT22;67098;51.140;4.088;2023-06-14T01:38:23;22.40;58.80
32217;DHT22;67098;51.140;4.088;2023-06-14T01:40:50;22.40;58.80
32217;DHT22;67098;51.140;4.088;2023-06-14T01:43:18;22.30;58.60
32217;DHT22;67098;51.140;4.088;2023-06-14T01:45:48;22.30;58.70
32217;DHT22;67098;51.140;4.088;2023-06-14T01:48:17;22.30;58.50
32217;DHT22;67098;51.140;4.088;2023-06-14T01:50:43;22.30;58.30
32217;DHT22;67098;51.140;4.088;2023-06-14T01:53:10;22.30;58.20
32217;DHT22;67098;51.140;4.088;2023-06-14T01:55:35;22.30;58.10
32217;DHT22;67098;51.140;4.088;2023-06-14T01:58:06;22.30;57.70
32217;DHT22;67098;51.140;4.088;2023-06-14T02:00:32;22.20;57.30
32217;DHT22;67098;51.140;4.088;2023-06-14T02:02:58;22.20;57.30
32217;DHT22;67098;51.140;4.088;2023-06-14T02:05:24;22.10;57.30
32217;DHT22;67098;51.140;4.088;2023-06-14T02:07:49;22.10;57.20
32217;DHT22;67098;51.140;4.088;2023-06-14T02:10:16;22.10;57.10
32217;DHT22;67098;51.140;4.088;2023-06-14T02:12:43;22.00;57.60
32217;DHT22;67098;51.140;4.088;2023-06-14T02:15:10;22.00;57.00
32217;DHT22;67098;51.140;4.088;2023-06-14T02:17:42;21.90;57.10
32217;DHT22;67098;51.140;4.088;2023-06-14T02:20:08;21.90;57.10
32217;DHT22;67098;51.140;4.088;2023-06-14T02:22:35;21.80;57.10
32217;DHT22;67098;51.140;4.088;2023-06-14T02:25:00;21.70;56.90
32217;DHT22;67098;51.140;4.088;2023-06-14T02:27:26;21.80;57.00
32217;DHT22;67098;51.140;4.088;2023-06-14T02:29:52;21.80;56.90
32217;DHT22;67098;51.140;4.088;2023-06-14T02:32:18;21.70;56.80
32217;DHT22;67098;51.140;4.088;2023-06-14T02:34:43;21.80;56.60
32217;DHT22;67098;51.140;4.088;2023-06-14T02:37:09;21.70;56.00
32217;DHT22;67098;51.140;4.088;2023-06-14T02:39:36;21.70;56.20
32217;DHT22;67098;51.140;4.088;2023-06-14T02:42:02;21.70;55.80
32217;DHT22;67098;51.140;4.088;2023-06-14T02:44:29;21.70;55.80
32217;DHT22;67098;51.140;4.088;2023-06-14T02:46:55;21.70;55.10
32217;DHT22;67098;51.140;4.088;2023-06-14T02:49:22;21.70;54.70
32217;DHT22;67098;51.140;4.088;2023-06-14T02:51:48;21.70;54.20
32217;DHT22;67098;51.140;4.088;2023-06-14T02:54:13;21.70;53.60
32217;DHT22;67098;51.140;4.088;2023-06-14T02:56:39;21.60;53.50
32217;DHT22;67098;51.140;4.088;2023-06-14T02:59:06;21.70;53.30
32217;DHT22;67098;51.140;4.088;2023-06-14T03:01:32;21.60;53.00
32217;DHT22;67098;51.140;4.088;2023-06-14T03:04:07;21.60;52.80
32217;DHT22;67098;51.140;4.088;2023-06-14T03:06:32;21.60;52.80
32217;DHT22;67098;51.140;4.088;2023-06-14T03:08:59;21.60;52.80
32217;DHT22;67098;51.140;4.088;2023-06-14T03:11:26;21.60;52.90
32217;DHT22;67098;51.140;4.088;2023-06-14T03:13:53;21.60;53.10
32217;DHT22;67098;51.140;4.088;2023-06-14T03:16:19;21.60;53.10
32217;DHT22;67098;51.140;4.088;2023-06-14T03:18:46;21.50;52.90
32217;DHT22;67098;51.140;4.088;2023-06-14T03:21:12;21.50;52.60
32217;DHT22;67098;51.140;4.088;2023-06-14T03:23:38;21.50;52.50
32217;DHT22;67098;51.140;4.088;2023-06-14T03:26:04;21.50;52.30
32217;DHT22;67098;51.140;4.088;2023-06-14T03:28:30;21.50;52.20
32217;DHT22;67098;51.140;4.088;2023-06-14T03:30:56;21.50;51.50
32217;DHT22;67098;51.140;4.088;2023-06-14T03:33:22;21.50;51.00
32217;DHT22;67098;51.140;4.088;2023-06-14T03:35:47;21.50;50.90
32217;DHT22;67098;51.140;4.088;2023-06-14T03:38:13;21.50;51.10
32217;DHT22;67098;51.140;4.088;2023-06-14T03:40:39;21.50;51.30
32217;DHT22;67098;51.140;4.088;2023-06-14T03:43:05;21.40;51.50
32217;DHT22;67098;51.140;4.088;2023-06-14T03:45:30;21.40;51.50
32217;DHT22;67098;51.140;4.088;2023-06-14T03:47:56;21.40;51.60
32217;DHT22;67098;51.140;4.088;2023-06-14T03:50:22;21.40;51.70
32217;DHT22;67098;51.140;4.088;2023-06-14T03:52:51;21.40;51.70
32217;DHT22;67098;51.140;4.088;2023-06-14T03:55:16;21.40;51.70
32217;DHT22;67098;51.140;4.088;2023-06-14T03:57:42;21.40;51.70
32217;DHT22;67098;51.140;4.088;2023-06-14T04:00:09;21.30;51.90
32217;DHT22;67098;51.140;4.088;2023-06-14T04:02:35;21.40;52.20
32217;DHT22;67098;51.140;4.088;2023-06-14T04:05:02;21.40;52.40
32217;DHT22;67098;51.140;4.088;2023-06-14T04:07:28;21.40;52.50
32217;DHT22;67098;51.140;4.088;2023-06-14T04:09:54;21.40;52.50
32217;DHT22;67098;51.140;4.088;2023-06-14T04:12:20;21.40;52.50
32217;DHT22;67098;51.140;4.088;2023-06-14T04:14:46;21.50;52.70
32217;DHT22;67098;51.140;4.088;2023-06-14T04:17:12;21.50;52.60
32217;DHT22;67098;51.140;4.088;2023-06-14T04:19:38;21.60;52.60
32217;DHT22;67098;51.140;4.088;2023-06-14T04:22:04;21.70;51.80
32217;DHT22;67098;51.140;4.088;2023-06-14T04:24:30;21.70;51.70
32217;DHT22;67098;51.140;4.088;2023-06-14T04:26:58;21.80;51.60
32217;DHT22;67098;51.140;4.088;2023-06-14T04:29:25;21.80;51.30
32217;DHT22;67098;51.140;4.088;2023-06-14T04:31:54;21.90;51.70
32217;DHT22;67098;51.140;4.088;2023-06-14T04:34:20;22.00;51.40
32217;DHT22;67098;51.140;4.088;2023-06-14T04:36:47;22.10;51.10
32217;DHT22;67098;51.140;4.088;2023-06-14T04:39:22;22.10;50.40
32217;DHT22;67098;51.140;4.088;2023-06-14T04:41:48;22.10;50.60
32217;DHT22;67098;51.140;4.088;2023-06-14T04:44:19;22.20;50.30
32217;DHT22;67098;51.140;4.088;2023-06-14T04:46:45;22.20;50.30
32217;DHT22;67098;51.140;4.088;2023-06-14T04:49:15;22.30;50.20
32217;DHT22;67098;51.140;4.088;2023-06-14T04:51:42;22.40;49.90
32217;DHT22;67098;51.140;4.088;2023-06-14T04:54:09;22.40;49.70
32217;DHT22;67098;51.140;4.088;2023-06-14T04:56:42;22.50;49.80
32217;DHT22;67098;51.140;4.088;2023-06-14T04:59:08;22.60;50.00
32217;DHT22;67098;51.140;4.088;2023-06-14T05:01:34;22.70;49.60
32217;DHT22;67098;51.140;4.088;2023-06-14T05:04:01;22.80;49.20
32217;DHT22;67098;51.140;4.088;2023-06-14T05:06:26;22.80;49.30
32217;DHT22;67098;51.140;4.088;2023-06-14T05:08:56;22.90;49.20
32217;DHT22;67098;51.140;4.088;2023-06-14T05:11:21;23.00;48.90
32217;DHT22;67098;51.140;4.088;2023-06-14T05:13:50;23.10;48.70
32217;DHT22;67098;51.140;4.088;2023-06-14T05:16:17;23.20;48.70
32217;DHT22;67098;51.140;4.088;2023-06-14T05:18:45;23.30;48.70
32217;DHT22;67098;51.140;4.088;2023-06-14T05:21:13;23.40;48.50
32217;DHT22;67098;51.140;4.088;2023-06-14T05:23:43;23.50;49.00
32217;DHT22;67098;51.140;4.088;2023-06-14T05:26:10;23.60;48.60
32217;DHT22;67098;51.140;4.088;2023-06-14T05:28:36;23.70;48.70
32217;DHT22;67098;51.140;4.088;2023-06-14T05:31:02;23.90;48.50
32217;DHT22;67098;51.140;4.088;2023-06-14T05:33:28;24.00;48.30
32217;DHT22;67098;51.140;4.088;2023-06-14T05:35:54;24.10;48.20
32217;DHT22;67098;51.140;4.088;2023-06-14T05:38:20;24.20;47.60
32217;DHT22;67098;51.140;4.088;2023-06-14T05:40:46;24.30;47.80
32217;DHT22;67098;51.140;4.088;2023-06-14T05:43:12;24.40;47.90
32217;DHT22;67098;51.140;4.088;2023-06-14T05:45:38;24.50;47.70
32217;DHT22;67098;51.140;4.088;2023-06-14T05:48:04;24.60;47.50
32217;DHT22;67098;51.140;4.088;2023-06-14T05:50:30;24.80;47.50
32217;DHT22;67098;51.140;4.088;2023-06-14T05:52:56;24.90;47.40
32217;DHT22;67098;51.140;4.088;2023-06-14T05:55:22;25.10;47.10
32217;DHT22;67098;51.140;4.088;2023-06-14T05:57:48;25.20;47.10
32217;DHT22;67098;51.140;4.088;2023-06-14T06:00:14;25.30;46.80
32217;DHT22;67098;51.140;4.088;2023-06-14T06:02:41;25.50;46.40
32217;DHT22;67098;51.140;4.088;2023-06-14T06:05:09;25.60;46.20
32217;DHT22;67098;51.140;4.088;2023-06-14T06:07:36;25.80;46.50
32217;DHT22;67098;51.140;4.088;2023-06-14T06:10:03;25.90;46.00
32217;DHT22;67098;51.140;4.088;2023-06-14T06:12:30;26.00;46.00
32217;DHT22;67098;51.140;4.088;2023-06-14T06:14:56;26.20;45.80
32217;DHT22;67098;51.140;4.088;2023-06-14T06:17:22;26.30;45.70
32217;DHT22;67098;51.140;4.088;2023-06-14T06:19:48;26.50;45.20
32217;DHT22;67098;51.140;4.088;2023-06-14T06:22:13;26.60;45.20
32217;DHT22;67098;51.140;4.088;2023-06-14T06:24:39;26.60;44.80
32217;DHT22;67098;51.140;4.088;2023-06-14T06:27:05;26.70;44.90
32217;DHT22;67098;51.140;4.088;2023-06-14T06:29:34;26.80;44.60
32217;DHT22;67098;51.140;4.088;2023-06-14T06:32:00;26.90;44.30
32217;DHT22;67098;51.140;4.088;2023-06-14T06:34:26;27.10;44.40
32217;DHT22;67098;51.140;4.088;2023-06-14T06:36:52;27.20;44.20
32217;DHT22;67098;51.140;4.088;2023-06-14T06:39:17;27.40;44.40
32217;DHT22;67098;51.140;4.088;2023-06-14T06:41:43;27.50;44.00
32217;DHT22;67098;51.140;4.088;2023-06-14T06:44:09;27.80;43.90
32217;DHT22;67098;51.140;4.088;2023-06-14T06:46:39;27.90;43.20
32217;DHT22;67098;51.140;4.088;2023-06-14T06:49:09;28.00;43.20
32217;DHT22;67098;51.140;4.088;2023-06-14T06:51:37;28.20;43.30
32217;DHT22;67098;51.140;4.088;2023-06-14T06:54:03;28.40;43.30
32217;DHT22;67098;51.140;4.088;2023-06-14T06:56:29;28.50;42.90
32217;DHT22;67098;51.140;4.088;2023-06-14T06:58:54;28.50;42.60
32217;DHT22;67098;51.140;4.088;2023-06-14T07:01:20;28.60;42.90
32217;DHT22;67098;51.140;4.088;2023-06-14T07:03:46;28.70;42.40
32217;DHT22;67098;51.140;4.088;2023-06-14T07:06:12;28.70;41.90
32217;DHT22;67098;51.140;4.088;2023-06-14T07:08:39;28.80;41.40
32217;DHT22;67098;51.140;4.088;2023-06-14T07:11:06;28.90;42.40
32217;DHT22;67098;51.140;4.088;2023-06-14T07:13:32;29.00;41.60
32217;DHT22;67098;51.140;4.088;2023-06-14T07:15:59;29.20;41.60
32217;DHT22;67098;51.140;4.088;2023-06-14T07:18:26;29.30;42.40
32217;DHT22;67098;51.140;4.088;2023-06-14T07:20:53;29.40;42.10
32217;DHT22;67098;51.140;4.088;2023-06-14T07:23:20;29.60;41.90
32217;DHT22;67098;51.140;4.088;2023-06-14T07:25:46;29.80;41.50
32217;DHT22;67098;51.140;4.088;2023-06-14T07:28:12;29.90;41.40
32217;DHT22;67098;51.140;4.088;2023-06-14T07:30:38;30.10;41.30
32217;DHT22;67098;51.140;4.088;2023-06-14T07:33:03;30.20;41.10
32217;DHT22;67098;51.140;4.088;2023-06-14T07:35:29;30.20;40.90
32217;DHT22;67098;51.140;4.088;2023-06-14T07:37:55;30.30;40.40
32217;DHT22;67098;51.140;4.088;2023-06-14T07:40:21;30.40;40.50
32217;DHT22;67098;51.140;4.088;2023-06-14T07:42:46;30.50;40.90
32217;DHT22;67098;51.140;4.088;2023-06-14T07:45:14;30.60;40.60
32217;DHT22;67098;51.140;4.088;2023-06-14T07:47:40;30.80;40.40
32217;DHT22;67098;51.140;4.088;2023-06-14T07:50:06;31.00;40.60
32217;DHT22;67098;51.140;4.088;2023-06-14T07:52:32;31.20;40.40
32217;DHT22;67098;51.140;4.088;2023-06-14T07:54:58;31.30;39.20
32217;DHT22;67098;51.140;4.088;2023-06-14T07:57:24;31.40;39.50
32217;DHT22;67098;51.140;4.088;2023-06-14T07:59:50;31.60;39.60
32217;DHT22;67098;51.140;4.088;2023-06-14T08:02:16;31.70;39.10
32217;DHT22;67098;51.140;4.088;2023-06-14T08:04:42;31.90;38.20
32217;DHT22;67098;51.140;4.088;2023-06-14T08:07:08;31.90;38.40
32217;DHT22;67098;51.140;4.088;2023-06-14T08:09:34;32.10;38.40
32217;DHT22;67098;51.140;4.088;2023-06-14T08:12:00;32.20;37.80
32217;DHT22;67098;51.140;4.088;2023-06-14T08:14:26;32.30;38.30
32217;DHT22;67098;51.140;4.088;2023-06-14T08:16:51;32.60;38.30
32217;DHT22;67098;51.140;4.088;2023-06-14T08:19:17;32.90;37.90
32217;DHT22;67098;51.140;4.088;2023-06-14T08:21:43;33.10;38.20
32217;DHT22;67098;51.140;4.088;2023-06-14T08:24:11;33.40;38.10
32217;DHT22;67098;51.140;4.088;2023-06-14T08:26:38;33.60;38.10
32217;DHT22;67098;51.140;4.088;2023-06-14T08:29:05;33.80;38.20
32217;DHT22;67098;51.140;4.088;2023-06-14T08:31:33;34.10;37.70
32217;DHT22;67098;51.140;4.088;2023-06-14T08:33:59;34.10;37.00
32217;DHT22;67098;51.140;4.088;2023-06-14T08:36:24;34.20;37.20
32217;DHT22;67098;51.140;4.088;2023-06-14T08:38:50;34.30;37.30
32217;DHT22;67098;51.140;4.088;2023-06-14T08:41:23;34.30;36.70
32217;DHT22;67098;51.140;4.088;2023-06-14T08:43:50;34.30;36.90
32217;DHT22;67098;51.140;4.088;2023-06-14T08:46:17;34.50;37.10
32217;DHT22;67098;51.140;4.088;2023-06-14T08:48:47;34.60;36.70
32217;DHT22;67098;51.140;4.088;2023-06-14T08:51:17;34.80;36.60
32217;DHT22;67098;51.140;4.088;2023-06-14T08:53:44;35.00;36.00
32217;DHT22;67098;51.140;4.088;2023-06-14T08:56:10;35.10;35.90
32217;DHT22;67098;51.140;4.088;2023-06-14T08:58:45;35.10;35.10
32217;DHT22;67098;51.140;4.088;2023-06-14T09:01:13;35.00;35.60
32217;DHT22;67098;51.140;4.088;2023-06-14T09:03:42;34.90;35.10
32217;DHT22;67098;51.140;4.088;2023-06-14T09:06:08;34.80;35.60
32217;DHT22;67098;51.140;4.088;2023-06-14T09:08:43;34.80;35.80
32217;DHT22;67098;51.140;4.088;2023-06-14T09:11:13;34.80;35.70
32217;DHT22;67098;51.140;4.088;2023-06-14T09:13:40;35.00;36.00
32217;DHT22;67098;51.140;4.088;2023-06-14T09:16:06;35.10;36.10
32217;DHT22;67098;51.140;4.088;2023-06-14T09:18:44;35.30;36.10
32217;DHT22;67098;51.140;4.088;2023-06-14T09:21:11;35.40;35.90
32217;DHT22;67098;51.140;4.088;2023-06-14T09:23:41;35.70;35.70
32217;DHT22;67098;51.140;4.088;2023-06-14T09:26:08;36.10;35.60
32217;DHT22;67098;51.140;4.088;2023-06-14T09:28:34;36.30;35.40
32217;DHT22;67098;51.140;4.088;2023-06-14T09:31:00;36.50;35.30
32217;DHT22;67098;51.140;4.088;2023-06-14T09:33:26;36.50;35.10
32217;DHT22;67098;51.140;4.088;2023-06-14T09:35:54;36.30;35.40
32217;DHT22;67098;51.140;4.088;2023-06-14T09:38:20;36.20;35.60
32217;DHT22;67098;51.140;4.088;2023-06-14T09:40:46;36.30;35.60
32217;DHT22;67098;51.140;4.088;2023-06-14T09:43:12;36.30;35.00
32217;DHT22;67098;51.140;4.088;2023-06-14T09:45:38;36.30;35.10
32217;DHT22;67098;51.140;4.088;2023-06-14T09:48:11;36.50;35.10
32217;DHT22;67098;51.140;4.088;2023-06-14T09:50:39;36.50;34.90
32217;DHT22;67098;51.140;4.088;2023-06-14T09:53:11;36.40;34.50
32217;DHT22;67098;51.140;4.088;2023-06-14T09:55:37;36.50;35.00
32217;DHT22;67098;51.140;4.088;2023-06-14T09:58:07;36.60;34.70
32217;DHT22;67098;51.140;4.088;2023-06-14T10:00:34;36.80;34.20
32217;DHT22;67098;51.140;4.088;2023-06-14T10:03:13;36.60;34.00
32217;DHT22;67098;51.140;4.088;2023-06-14T10:05:43;36.90;34.20
32217;DHT22;67098;51.140;4.088;2023-06-14T10:08:11;37.10;34.00
32217;DHT22;67098;51.140;4.088;2023-06-14T10:10:39;37.20;32.50
32217;DHT22;67098;51.140;4.088;2023-06-14T10:13:07;37.20;33.00
32217;DHT22;67098;51.140;4.088;2023-06-14T10:15:52;37.20;33.20
32217;DHT22;67098;51.140;4.088;2023-06-14T10:24:10;37.70;32.50
32217;DHT22;67098;51.140;4.088;2023-06-14T10:26:51;37.50;32.50
32217;DHT22;67098;51.140;4.088;2023-06-14T10:29:18;37.60;32.70
32217;DHT22;67098;51.140;4.088;2023-06-14T10:31:46;37.50;32.40
32217;DHT22;67098;51.140;4.088;2023-06-14T10:34:14;37.60;32.90
32217;DHT22;67098;51.140;4.088;2023-06-14T10:39:29;38.00;32.00
32217;DHT22;67098;51.140;4.088;2023-06-14T10:41:56;38.10;32.10
32217;DHT22;67098;51.140;4.088;2023-06-14T10:49:17;39.30;32.40
32217;DHT22;67098;51.140;4.088;2023-06-14T10:51:44;39.70;31.50
32217;DHT22;67098;51.140;4.088;2023-06-14T10:54:13;39.80;31.20
32217;DHT22;67098;51.140;4.088;2023-06-14T10:56:46;39.80;30.90
32217;DHT22;67098;51.140;4.088;2023-06-14T10:59:12;40.10;30.90
32217;DHT22;67098;51.140;4.088;2023-06-14T11:04:11;40.60;31.20
32217;DHT22;67098;51.140;4.088;2023-06-14T11:06:48;40.90;30.20
32217;DHT22;67098;51.140;4.088;2023-06-14T11:12:07;40.70;30.30
32217;DHT22;67098;51.140;4.088;2023-06-14T11:14:35;40.70;30.70
32217;DHT22;67098;51.140;4.088;2023-06-14T11:17:01;40.80;30.40
32217;DHT22;67098;51.140;4.088;2023-06-14T11:19:27;40.90;30.20
32217;DHT22;67098;51.140;4.088;2023-06-14T11:21:54;41.00;30.00
32217;DHT22;67098;51.140;4.088;2023-06-14T11:24:20;40.60;29.30
32217;DHT22;67098;51.140;4.088;2023-06-14T11:26:47;40.30;29.70
32217;DHT22;67098;51.140;4.088;2023-06-14T11:29:15;40.10;29.80
32217;DHT22;67098;51.140;4.088;2023-06-14T11:31:44;40.00;29.70
32217;DHT22;67098;51.140;4.088;2023-06-14T11:34:13;39.90;29.80
32217;DHT22;67098;51.140;4.088;2023-06-14T11:36:39;39.80;29.50
32217;DHT22;67098;51.140;4.088;2023-06-14T11:39:06;39.90;29.50
32217;DHT22;67098;51.140;4.088;2023-06-14T11:41:43;40.10;29.10
32217;DHT22;67098;51.140;4.088;2023-06-14T11:44:09;40.40;29.40
32217;DHT22;67098;51.140;4.088;2023-06-14T11:46:35;40.70;29.40
32217;DHT22;67098;51.140;4.088;2023-06-14T11:49:02;40.70;29.20
32217;DHT22;67098;51.140;4.088;2023-06-14T11:51:35;40.80;29.40
32217;DHT22;67098;51.140;4.088;2023-06-14T11:54:03;40.90;29.40
32217;DHT22;67098;51.140;4.088;2023-06-14T11:56:30;41.10;29.50
32217;DHT22;67098;51.140;4.088;2023-06-14T11:58:57;41.30;29.50
32217;DHT22;67098;51.140;4.088;2023-06-14T12:01:23;41.60;29.70
32217;DHT22;67098;51.140;4.088;2023-06-14T12:03:53;41.60;29.10
32217;DHT22;67098;51.140;4.088;2023-06-14T12:06:27;41.50;29.00
32217;DHT22;67098;51.140;4.088;2023-06-14T12:09:05;41.50;29.10
32217;DHT22;67098;51.140;4.088;2023-06-14T12:11:42;41.50;29.10
32217;DHT22;67098;51.140;4.088;2023-06-14T12:14:08;41.60;29.00
32217;DHT22;67098;51.140;4.088;2023-06-14T12:16:37;41.80;28.90
32217;DHT22;67098;51.140;4.088;2023-06-14T12:19:13;42.10;29.10
32217;DHT22;67098;51.140;4.088;2023-06-14T12:21:40;41.90;28.90
32217;DHT22;67098;51.140;4.088;2023-06-14T12:24:06;41.80;28.70
32217;DHT22;67098;51.140;4.088;2023-06-14T12:26:33;41.80;28.90
32217;DHT22;67098;51.140;4.088;2023-06-14T12:28:59;42.00;29.00
32217;DHT22;67098;51.140;4.088;2023-06-14T12:31:25;42.30;29.00
32217;DHT22;67098;51.140;4.088;2023-06-14T12:33:52;42.30;28.40
32217;DHT22;67098;51.140;4.088;2023-06-14T12:36:18;42.10;28.20
32217;DHT22;67098;51.140;4.088;2023-06-14T12:38:45;41.90;28.20
32217;DHT22;67098;51.140;4.088;2023-06-14T12:41:11;41.70;28.20
32217;DHT22;67098;51.140;4.088;2023-06-14T12:43:39;41.60;28.30
32217;DHT22;67098;51.140;4.088;2023-06-14T12:46:04;41.50;28.40
32217;DHT22;67098;51.140;4.088;2023-06-14T12:48:30;41.70;28.70
32217;DHT22;67098;51.140;4.088;2023-06-14T12:50:57;41.70;28.40
32217;DHT22;67098;51.140;4.088;2023-06-14T12:53:23;41.80;28.90
32217;DHT22;67098;51.140;4.088;2023-06-14T12:55:49;41.70;29.10
32217;DHT22;67098;51.140;4.088;2023-06-14T12:58:16;41.70;28.90
32217;DHT22;67098;51.140;4.088;2023-06-14T13:00:43;41.90;28.80
32217;DHT22;67098;51.140;4.088;2023-06-14T13:03:10;41.90;28.40
32217;DHT22;67098;51.140;4.088;2023-06-14T13:05:36;41.80;28.20
32217;DHT22;67098;51.140;4.088;2023-06-14T13:08:03;41.80;28.30
32217;DHT22;67098;51.140;4.088;2023-06-14T13:10:29;42.10;28.70
32217;DHT22;67098;51.140;4.088;2023-06-14T13:12:54;41.80;28.60
32217;DHT22;67098;51.140;4.088;2023-06-14T13:15:20;41.60;28.30
32217;DHT22;67098;51.140;4.088;2023-06-14T13:17:46;41.60;28.70
32217;DHT22;67098;51.140;4.088;2023-06-14T13:20:14;41.60;28.60
32217;DHT22;67098;51.140;4.088;2023-06-14T13:22:41;41.60;28.80
32217;DHT22;67098;51.140;4.088;2023-06-14T13:25:08;41.80;28.70
32217;DHT22;67098;51.140;4.088;2023-06-14T13:27:33;41.90;28.80
32217;DHT22;67098;51.140;4.088;2023-06-14T13:29:59;42.00;28.80
32217;DHT22;67098;51.140;4.088;2023-06-14T13:32:25;41.90;28.40
32217;DHT22;67098;51.140;4.088;2023-06-14T13:34:51;41.70;28.30
32217;DHT22;67098;51.140;4.088;2023-06-14T13:37:16;41.40;27.90
32217;DHT22;67098;51.140;4.088;2023-06-14T13:39:42;41.20;28.40
32217;DHT22;67098;51.140;4.088;2023-06-14T13:42:09;41.10;28.40
32217;DHT22;67098;51.140;4.088;2023-06-14T13:44:36;41.20;28.40
32217;DHT22;67098;51.140;4.088;2023-06-14T13:47:01;41.40;28.20
32217;DHT22;67098;51.140;4.088;2023-06-14T13:49:27;41.70;28.00
32217;DHT22;67098;51.140;4.088;2023-06-14T13:51:53;41.50;28.10
32217;DHT22;67098;51.140;4.088;2023-06-14T13:54:22;41.20;27.90
32217;DHT22;67098;51.140;4.088;2023-06-14T13:56:47;41.20;28.30
32217;DHT22;67098;51.140;4.088;2023-06-14T13:59:13;41.20;28.10
32217;DHT22;67098;51.140;4.088;2023-06-14T14:01:40;41.00;27.80
32217;DHT22;67098;51.140;4.088;2023-06-14T14:04:05;41.00;28.10
32217;DHT22;67098;51.140;4.088;2023-06-14T14:06:31;40.80;27.80
32217;DHT22;67098;51.140;4.088;2023-06-14T14:08:57;40.60;28.00
32217;DHT22;67098;51.140;4.088;2023-06-14T14:11:23;40.60;28.00
32217;DHT22;67098;51.140;4.088;2023-06-14T14:13:49;40.50;27.90
32217;DHT22;67098;51.140;4.088;2023-06-14T14:16:15;40.40;27.90
32217;DHT22;67098;51.140;4.088;2023-06-14T14:18:41;40.60;27.90
32217;DHT22;67098;51.140;4.088;2023-06-14T14:21:07;40.90;27.80
32217;DHT22;67098;51.140;4.088;2023-06-14T14:23:33;41.00;27.60
32217;DHT22;67098;51.140;4.088;2023-06-14T14:25:58;41.00;27.60
32217;DHT22;67098;51.140;4.088;2023-06-14T14:28:28;40.90;27.70
32217;DHT22;67098;51.140;4.088;2023-06-14T14:30:54;41.00;27.50
32217;DHT22;67098;51.140;4.088;2023-06-14T14:33:20;40.90;27.40
32217;DHT22;67098;51.140;4.088;2023-06-14T14:35:46;41.00;28.10
32217;DHT22;67098;51.140;4.088;2023-06-14T14:38:13;40.80;27.60
32217;DHT22;67098;51.140;4.088;2023-06-14T14:40:39;40.80;27.90
32217;DHT22;67098;51.140;4.088;2023-06-14T14:43:06;40.80;27.80
32217;DHT22;67098;51.140;4.088;2023-06-14T14:45:32;40.30;27.50
32217;DHT22;67098;51.140;4.088;2023-06-14T14:47:58;40.30;27.70
32217;DHT22;67098;51.140;4.088;2023-06-14T14:50:25;40.40;27.80
32217;DHT22;67098;51.140;4.088;2023-06-14T14:52:51;40.30;27.80
32217;DHT22;67098;51.140;4.088;2023-06-14T14:55:16;40.50;28.30
32217;DHT22;67098;51.140;4.088;2023-06-14T14:57:43;40.30;27.50
32217;DHT22;67098;51.140;4.088;2023-06-14T15:00:09;40.20;27.60
32217;DHT22;67098;51.140;4.088;2023-06-14T15:02:35;40.00;27.60
32217;DHT22;67098;51.140;4.088;2023-06-14T15:05:02;39.90;27.80
32217;DHT22;67098;51.140;4.088;2023-06-14T15:07:28;40.10;28.00
32217;DHT22;67098;51.140;4.088;2023-06-14T15:09:55;40.20;27.40
32217;DHT22;67098;51.140;4.088;2023-06-14T15:12:21;40.10;27.40
32217;DHT22;67098;51.140;4.088;2023-06-14T15:14:50;39.80;27.70
32217;DHT22;67098;51.140;4.088;2023-06-14T15:17:18;39.80;27.70
32217;DHT22;67098;51.140;4.088;2023-06-14T15:19:47;40.00;27.90
32217;DHT22;67098;51.140;4.088;2023-06-14T15:22:14;40.00;27.90
32217;DHT22;67098;51.140;4.088;2023-06-14T15:24:43;40.00;28.00
32217;DHT22;67098;51.140;4.088;2023-06-14T15:27:09;39.90;27.80
32217;DHT22;67098;51.140;4.088;2023-06-14T15:29:36;39.80;28.00
32217;DHT22;67098;51.140;4.088;2023-06-14T15:32:02;39.60;28.00
32217;DHT22;67098;51.140;4.088;2023-06-14T15:34:28;39.40;28.00
32217;DHT22;67098;51.140;4.088;2023-06-14T15:36:54;39.30;28.20
32217;DHT22;67098;51.140;4.088;2023-06-14T15:39:20;39.20;28.10
32217;DHT22;67098;51.140;4.088;2023-06-14T15:41:47;39.20;28.20
32217;DHT22;67098;51.140;4.088;2023-06-14T15:44:12;39.00;28.20
32217;DHT22;67098;51.140;4.088;2023-06-14T15:46:38;38.80;28.30
32217;DHT22;67098;51.140;4.088;2023-06-14T15:49:10;38.50;28.20